This is the latest recevied weather packets stored in our database for station/object W0AVQ. If no packets are shown the sender has not sent any weather packets the latest 10 day(s).
| Time | Temp. | Humidity | Pressure | Rain* | Wind** | Luminosity | Snow |
|---|---|---|---|---|---|---|---|
| 1777594694 | 16.67° C | 55% | 1016.6 hPa | 0 mm | - | 12 W/m² | - |
| 1777594390 | 16.67° C | 55% | 1016.7 hPa | 0 mm | - | 15 W/m² | - |
| 1777594085 | 17.22° C | 54% | 1016.9 hPa | 0 mm | - | 19 W/m² | - |
| 1777593782 | 17.22° C | 58% | 1016.7 hPa | 0 mm | - | 23 W/m² | - |
| 1777593478 | 17.22° C | 56% | 1016.6 hPa | 0 mm | - | 29 W/m² | - |
| 1777593176 | 17.78° C | 58% | 1016.7 hPa | 0 mm | - | 30 W/m² | - |
| 1777592876 | 17.78° C | 57% | 1016.9 hPa | 0 mm | - | 33 W/m² | - |
| 1777592573 | 17.78° C | 57% | 1016.8 hPa | 0 mm | - | 38 W/m² | - |
| 1777592268 | 18.33° C | 54% | 1016.6 hPa | 0 mm | - | 41 W/m² | - |
| 1777591965 | 18.89° C | 54% | 1016.7 hPa | 0 mm | - | 44 W/m² | - |
| 1777591661 | 18.89° C | 50% | 1017.2 hPa | 0 mm | - | 51 W/m² | - |
| 1777591357 | 19.44° C | 48% | 1017.1 hPa | 0 mm | - | 53 W/m² | - |
| 1777591053 | 19.44° C | 46% | 1016.9 hPa | 0 mm | - | 60 W/m² | - |
| 1777590749 | 20° C | 46% | 1017.3 hPa | 0 mm | - | 67 W/m² | - |
| 1777590445 | 20° C | 41% | 1017.2 hPa | 0 mm | - | 69 W/m² | - |
| 1777590142 | 20° C | 39% | 1016.9 hPa | 0 mm | - | 92 W/m² | - |
| 1777589838 | 19.44° C | 38% | 1017.4 hPa | 0 mm | - | 83 W/m² | - |
| 1777589533 | 20° C | 38% | 1017.1 hPa | 0 mm | - | 138 W/m² | - |
| 1777589232 | 20° C | 37% | 1017.1 hPa | 0 mm | - | 157 W/m² | - |
| 1777588929 | 20.56° C | 37% | 1016.9 hPa | 0 mm | - | 229 W/m² | - |
| 1777588625 | 20° C | 44% | 1017.1 hPa | 0 mm | - | 258 W/m² | - |
| 1777588321 | 20.56° C | 44% | 1017.1 hPa | 0 mm | - | 317 W/m² | - |
| 1777588016 | 20.56° C | 42% | 1016.9 hPa | 0 mm | - | 255 W/m² | - |
| 1777587712 | 20.56° C | 38% | 1017.1 hPa | 0 mm | - | 309 W/m² | - |
| 1777587407 | 19.44° C | 40% | 1016.9 hPa | 0 mm | - | 178 W/m² | - |
* Rain latest hour (hover to see other rain measurements)
** Current wind speed in m/s (hover to see current wind gust speed)